Time;durP1;ratioP1;P1;durP2;ratioP2;P2;SDS_P1;SDS_P2;PMS_P1;PMS_P2;Temp;Humidity;BMP_temperature;BMP_pressure;BME280_temperature;BME280_humidity;BME280_pressure;Samples;Min_cycle;Max_cycle;Signal;HPM_P1;HPM_P2
2022/11/21 00:01:38;;;;;;;96.37;37.80;;;0.30;99.90;;;;;;4392336;28;661717;-63
2022/11/21 00:04:25;;;;;;;105.10;39.10;;;0.30;99.90;;;;;;4374727;28;660972;-64
2022/11/21 00:07:14;;;;;;;102.17;38.77;;;0.20;99.90;;;;;;4387555;28;662355;-63
2022/11/21 00:10:01;;;;;;;90.77;35.43;;;0.30;99.90;;;;;;4373731;28;660558;-63
2022/11/21 00:12:52;;;;;;;91.22;36.15;;;0.20;99.90;;;;;;4393586;28;660763;-63
2022/11/21 00:15:39;;;;;;;86.27;35.30;;;0.20;99.90;;;;;;4371063;28;660819;-63
2022/11/21 00:18:26;;;;;;;95.50;34.93;;;0.20;99.90;;;;;;4374776;28;660740;-63
2022/11/21 00:21:14;;;;;;;88.37;34.57;;;0.30;99.90;;;;;;4389254;28;660524;-63
2022/11/21 00:24:03;;;;;;;63.07;25.30;;;0.20;99.90;;;;;;4375531;28;660176;-64
2022/11/21 00:26:50;;;;;;;77.10;29.85;;;0.30;99.90;;;;;;4375439;28;660456;-64
2022/11/21 00:29:37;;;;;;;71.00;26.37;;;0.30;99.90;;;;;;4398692;28;661176;-62
2022/11/21 00:32:24;;;;;;;60.50;24.77;;;0.30;99.90;;;;;;4397094;28;660807;-63
2022/11/21 00:35:11;;;;;;;66.47;24.70;;;0.30;99.90;;;;;;4374844;28;659799;-63
2022/11/21 00:37:58;;;;;;;55.93;22.80;;;0.30;99.90;;;;;;4397701;28;660067;-63
2022/11/21 00:40:47;;;;;;;60.77;22.50;;;0.20;99.90;;;;;;4378748;28;659724;-64
2022/11/21 00:43:34;;;;;;;53.90;20.63;;;0.20;99.90;;;;;;4409588;28;660090;-63
2022/11/21 00:46:21;;;;;;;48.67;20.63;;;0.20;99.90;;;;;;4396059;28;659971;-63
2022/11/21 00:49:08;;;;;;;50.40;19.15;;;0.00;99.90;;;;;;4414985;28;660959;-63
2022/11/21 00:51:55;;;;;;;50.90;18.80;;;0.00;99.90;;;;;;4396069;28;659651;-65
2022/11/21 00:54:42;;;;;;;46.30;18.93;;;0.00;99.90;;;;;;4414996;28;660769;-63
2022/11/21 00:57:31;;;;;;;40.23;16.10;;;0.00;99.90;;;;;;4410960;28;659061;-63
2022/11/21 01:00:18;;;;;;;45.03;18.53;;;-0.10;99.90;;;;;;4425074;28;660146;-63
2022/11/21 01:03:05;;;;;;;46.43;18.20;;;-0.20;99.90;;;;;;4827262;28;538160;-64
2022/11/21 01:05:52;;;;;;;45.63;18.80;;;-0.20;99.90;;;;;;4416726;28;662002;-63
2022/11/21 01:08:40;;;;;;;43.63;18.17;;;-0.20;99.90;;;;;;4412666;28;660901;-63
2022/11/21 01:11:27;;;;;;;44.30;18.40;;;-0.30;99.90;;;;;;4389584;28;661305;-63
2022/11/21 01:14:17;;;;;;;50.07;19.77;;;-0.40;99.90;;;;;;4410569;28;661284;-65
2022/11/21 01:17:04;;;;;;;52.73;20.20;;;-0.50;99.90;;;;;;4412717;28;661015;-63
2022/11/21 01:19:51;;;;;;;44.03;19.70;;;-0.50;99.90;;;;;;4393226;28;660698;-63
2022/11/21 01:22:38;;;;;;;48.97;18.73;;;-0.50;99.90;;;;;;4414644;28;661469;-64
2022/11/21 01:25:25;;;;;;;51.07;18.03;;;-0.50;99.90;;;;;;4397760;28;660972;-65
2022/11/21 01:28:12;;;;;;;46.65;18.42;;;-0.60;99.90;;;;;;4416208;28;661636;-63
2022/11/21 01:31:07;;;;;;;46.03;19.00;;;-0.60;99.90;;;;;;4411976;28;661091;-64
2022/11/21 01:33:54;;;;;;;42.33;18.00;;;-0.60;99.90;;;;;;4388855;28;660764;-64
2022/11/21 01:36:41;;;;;;;53.70;18.43;;;-0.70;99.90;;;;;;4393305;28;660900;-64
2022/11/21 01:39:28;;;;;;;45.03;17.27;;;-0.60;99.90;;;;;;4412028;28;661496;-63
2022/11/21 01:42:15;;;;;;;45.57;17.17;;;-0.70;99.90;;;;;;4392112;28;660600;-64
2022/11/21 01:45:04;;;;;;;50.03;17.17;;;-0.80;99.90;;;;;;4412724;28;660886;-63
2022/11/21 01:47:53;;;;;;;43.87;17.63;;;-0.80;99.90;;;;;;4393557;28;662881;-63
2022/11/21 01:50:40;;;;;;;45.50;16.83;;;-0.90;99.90;;;;;;4393555;28;660755;-65
2022/11/21 01:53:27;;;;;;;40.10;16.10;;;-1.00;99.90;;;;;;4416840;28;660767;-63
2022/11/21 01:56:14;;;;;;;44.33;16.67;;;-1.10;99.90;;;;;;4412216;28;661516;-63
2022/11/21 01:59:02;;;;;;;41.40;16.33;;;-1.10;99.90;;;;;;4389405;28;661201;-64
2022/11/21 02:01:49;;;;;;;41.37;15.13;;;-1.20;99.90;;;;;;4412235;28;661232;-63
2022/11/21 02:04:37;;;;;;;37.30;15.77;;;-1.40;99.90;;;;;;4393376;28;661212;-64
2022/11/21 02:07:25;;;;;;;36.97;15.67;;;-1.50;99.90;;;;;;4407137;28;660772;-65
2022/11/21 02:10:13;;;;;;;41.67;15.63;;;-1.60;99.90;;;;;;4416146;28;660734;-63
2022/11/21 02:13:00;;;;;;;32.60;14.27;;;-1.70;99.90;;;;;;4402418;28;661133;-64
2022/11/21 02:15:47;;;;;;;67.17;17.03;;;-1.80;99.90;;;;;;4416259;28;661459;-63
2022/11/21 02:18:34;;;;;;;33.23;15.27;;;-1.80;99.90;;;;;;4412435;28;660497;-63
2022/11/21 02:21:29;;;;;;;34.87;15.20;;;-1.90;99.90;;;;;;4393253;28;660546;-63
2022/11/21 02:24:20;;;;;;;40.10;15.47;;;-2.00;99.90;;;;;;4370271;28;661102;-63
2022/11/21 02:27:08;;;;;;;37.10;15.17;;;-2.10;99.90;;;;;;4389387;28;662496;-63
2022/11/21 02:29:55;;;;;;;39.23;15.37;;;-2.10;99.90;;;;;;4391899;28;661142;-64
2022/11/21 02:32:45;;;;;;;33.93;14.77;;;-2.20;99.90;;;;;;4412311;28;662168;-64
2022/11/21 02:35:32;;;;;;;33.97;14.33;;;-2.30;99.90;;;;;;4389146;28;661268;-63
2022/11/21 02:38:22;;;;;;;52.00;18.97;;;-2.40;99.90;;;;;;4411477;28;660600;-65
2022/11/21 02:41:11;;;;;;;47.00;18.20;;;-2.50;99.90;;;;;;4411647;28;660641;-63
2022/11/21 02:44:04;;;;;;;50.97;18.50;;;-2.50;99.90;;;;;;4388772;28;660747;-63
2022/11/21 02:46:51;;;;;;;45.33;18.43;;;-2.60;99.90;;;;;;4370131;28;660930;-64
2022/11/21 02:49:40;;;;;;;45.30;18.57;;;-2.60;99.90;;;;;;4411821;28;660372;-63
2022/11/21 02:52:28;;;;;;;43.07;17.17;;;-2.60;99.90;;;;;;4388814;28;662691;-63
2022/11/21 02:55:15;;;;;;;49.13;17.97;;;-2.60;99.90;;;;;;4404227;28;661784;-65
2022/11/21 02:58:02;;;;;;;48.17;17.83;;;-2.70;99.90;;;;;;4415567;28;661455;-63
2022/11/21 03:00:51;;;;;;;42.47;16.23;;;-2.60;99.90;;;;;;4563457;28;661355;-64
2022/11/21 03:03:38;;;;;;;48.00;18.20;;;-2.70;99.90;;;;;;4711846;28;537543;-63
2022/11/21 03:06:25;;;;;;;44.93;18.03;;;-2.70;99.90;;;;;;4394348;28;661001;-64
2022/11/21 03:09:12;;;;;;;44.35;18.38;;;-2.70;99.90;;;;;;4415271;28;661548;-63
2022/11/21 03:11:59;;;;;;;76.60;24.00;;;-2.70;99.90;;;;;;4411356;28;660741;-63
2022/11/21 03:14:46;;;;;;;51.40;19.30;;;-2.70;99.90;;;;;;4388338;28;660484;-63
2022/11/21 03:17:35;;;;;;;40.00;14.30;;;-2.70;99.90;;;;;;4411031;28;661962;-63
2022/11/21 03:20:22;;;;;;;45.27;18.60;;;-3.00;99.90;;;;;;4388253;28;662792;-63
2022/11/21 03:23:09;;;;;;;45.27;17.40;;;-3.00;99.90;;;;;;4411157;28;661117;-63
2022/11/21 03:25:56;;;;;;;45.93;16.57;;;-3.00;99.90;;;;;;4392368;28;660939;-63
2022/11/21 03:28:43;;;;;;;45.73;16.60;;;-3.00;99.90;;;;;;4410766;28;662055;-63
2022/11/21 03:31:30;;;;;;;43.28;16.55;;;-3.00;99.90;;;;;;4391422;28;660812;-65
2022/11/21 03:34:19;;;;;;;46.57;17.67;;;-3.00;99.90;;;;;;4415045;28;661718;-63
2022/11/21 03:37:06;;;;;;;55.43;19.67;;;-3.10;99.90;;;;;;4392005;28;660714;-64
2022/11/21 03:39:53;;;;;;;54.13;18.73;;;-3.20;99.90;;;;;;4414937;28;661155;-63
2022/11/21 03:42:40;;;;;;;58.33;20.83;;;-3.20;99.90;;;;;;4399703;28;660977;-65
2022/11/21 03:45:27;;;;;;;49.47;19.20;;;-3.30;99.90;;;;;;4414765;28;661284;-63
2022/11/21 03:48:14;;;;;;;48.53;19.13;;;-3.30;99.90;;;;;;4410867;28;661758;-63
2022/11/21 03:51:04;;;;;;;49.03;17.33;;;-3.30;99.90;;;;;;4390194;28;662149;-63
2022/11/21 03:53:51;;;;;;;60.63;22.47;;;-3.40;99.90;;;;;;4390901;28;660683;-63
2022/11/21 03:56:39;;;;;;;40.20;16.47;;;-3.50;99.90;;;;;;4409546;28;662236;-63
2022/11/21 03:59:26;;;;;;;48.80;17.73;;;-3.50;99.90;;;;;;4371364;28;660609;-63
2022/11/21 04:02:13;;;;;;;51.03;19.27;;;-3.50;99.90;;;;;;4393228;28;662017;-63
2022/11/21 04:05:00;;;;;;;56.63;19.60;;;-3.50;99.90;;;;;;4374315;28;660822;-64
2022/11/21 04:07:49;;;;;;;49.00;18.63;;;-3.50;99.90;;;;;;4393203;28;661902;-63
2022/11/21 04:10:36;;;;;;;53.43;18.97;;;-3.60;99.90;;;;;;4374178;28;660886;-63
2022/11/21 04:13:23;;;;;;;51.57;18.60;;;-3.70;99.90;;;;;;4394097;28;661170;-63
2022/11/21 04:16:10;;;;;;;51.53;19.47;;;-3.70;99.90;;;;;;4374155;28;661217;-64
2022/11/21 04:18:57;;;;;;;55.28;19.85;;;-3.70;99.90;;;;;;4396997;28;662183;-63
2022/11/21 04:21:44;;;;;;;53.53;19.93;;;-3.70;99.90;;;;;;4393031;28;661781;-63
2022/11/21 04:24:33;;;;;;;66.37;22.67;;;-3.70;99.90;;;;;;4370353;28;660547;-63
2022/11/21 04:27:20;;;;;;;59.73;22.67;;;-3.70;99.90;;;;;;4375693;28;661542;-64
2022/11/21 04:30:08;;;;;;;60.23;23.60;;;-3.80;99.90;;;;;;4397083;28;661251;-63
2022/11/21 04:32:55;;;;;;;79.30;29.33;;;-3.80;99.90;;;;;;4374201;28;661278;-64
2022/11/21 04:35:42;;;;;;;74.90;29.03;;;-3.80;99.90;;;;;;4396811;28;661409;-63
2022/11/21 04:38:29;;;;;;;66.10;26.50;;;-3.80;99.90;;;;;;4393163;28;661025;-63
2022/11/21 04:41:18;;;;;;;62.10;23.83;;;-3.80;99.90;;;;;;4374039;28;662077;-63
2022/11/21 04:44:05;;;;;;;64.27;24.47;;;-3.80;99.90;;;;;;4375200;28;660539;-65
2022/11/21 04:46:53;;;;;;;71.10;25.30;;;-3.80;99.90;;;;;;4392190;28;662293;-63
2022/11/21 04:49:40;;;;;;;70.23;26.70;;;-3.90;99.90;;;;;;4385198;28;660647;-65
2022/11/21 04:52:27;;;;;;;66.00;23.08;;;-3.90;99.90;;;;;;4396231;28;660791;-63
2022/11/21 04:55:14;;;;;;;61.20;24.13;;;-4.00;99.90;;;;;;4391940;28;660702;-63
2022/11/21 04:58:03;;;;;;;69.30;26.00;;;-4.00;99.90;;;;;;4369650;28;660582;-63
2022/11/21 05:00:50;;;;;;;70.77;26.33;;;-4.00;99.90;;;;;;4544897;28;660856;-63
2022/11/21 05:03:37;;;;;;;74.33;30.87;;;-4.00;99.90;;;;;;4693135;28;537438;-63
2022/11/21 05:06:24;;;;;;;64.93;24.33;;;-4.00;99.90;;;;;;4393426;28;660719;-63
2022/11/21 05:09:11;;;;;;;61.50;24.97;;;-3.90;99.90;;;;;;4374612;28;661334;-63
2022/11/21 05:15:05;;;;;;;109.30;29.90;;;-3.80;99.90;;;;;;4370922;28;661821;-63
2022/11/21 05:17:52;;;;;;;87.17;26.27;;;-3.60;99.90;;;;;;4371829;28;663632;-63
2022/11/21 05:20:39;;;;;;;109.10;31.13;;;-3.70;99.90;;;;;;4395273;28;661238;-62
2022/11/21 05:23:27;;;;;;;142.87;34.03;;;-3.60;99.90;;;;;;4376339;28;661780;-63
2022/11/21 05:26:14;;;;;;;122.87;32.67;;;-3.40;99.90;;;;;;4395451;28;661548;-63
2022/11/21 05:29:01;;;;;;;138.03;32.40;;;-3.20;99.90;;;;;;4376311;28;662165;-63
2022/11/21 05:31:50;;;;;;;153.18;32.47;;;-3.20;99.90;;;;;;4399056;28;662635;-63
2022/11/21 05:34:37;;;;;;;106.47;31.80;;;-3.00;99.90;;;;;;4372395;28;663321;-63
2022/11/21 05:37:24;;;;;;;112.20;33.17;;;-3.00;99.90;;;;;;4394515;28;662293;-63
2022/11/21 05:40:11;;;;;;;119.80;36.17;;;-2.90;99.90;;;;;;4376564;28;661562;-63
2022/11/21 05:46:03;;;;;;;106.67;36.10;;;-2.80;99.90;;;;;;4391727;28;661963;-63
2022/11/21 05:48:52;;;;;;;165.57;36.60;;;-2.70;99.90;;;;;;4391483;28;661793;-64
2022/11/21 05:51:39;;;;;;;150.90;36.53;;;-2.60;99.90;;;;;;4410610;28;661843;-63
2022/11/21 05:54:26;;;;;;;201.60;35.23;;;-2.50;99.90;;;;;;4391717;28;662821;-63
2022/11/21 05:57:13;;;;;;;176.50;39.50;;;-2.40;99.90;;;;;;4409182;28;662432;-63
2022/11/21 06:00:01;;;;;;;186.93;37.17;;;-2.30;99.90;;;;;;4385746;28;661936;-64
2022/11/21 06:06:03;;;;;;;220.50;37.07;;;-2.20;99.90;;;;;;4379939;28;662479;-63
2022/11/21 06:08:50;;;;;;;202.63;36.90;;;-2.10;99.90;;;;;;4367684;28;661380;-64
2022/11/21 06:11:38;;;;;;;197.00;37.97;;;-2.20;99.90;;;;;;4411094;28;663387;-63
2022/11/21 06:14:25;;;;;;;250.50;37.87;;;-2.20;99.90;;;;;;4405857;28;661716;-65
2022/11/21 06:17:12;;;;;;;185.15;38.28;;;-2.10;99.90;;;;;;4415289;28;661455;-63
2022/11/21 06:19:59;;;;;;;196.13;38.20;;;-2.10;99.90;;;;;;4411020;28;662384;-63
2022/11/21 06:22:48;;;;;;;190.77;39.42;;;-2.10;99.90;;;;;;4388245;28;662539;-63
2022/11/21 06:25:35;;;;;;;190.90;38.70;;;-2.10;99.90;;;;;;4401684;28;662619;-65
2022/11/21 06:28:22;;;;;;;185.80;39.10;;;-2.00;99.90;;;;;;4414405;28;662136;-64
2022/11/21 06:31:10;;;;;;;178.53;38.13;;;-2.00;99.90;;;;;;4405039;28;662858;-63
2022/11/21 06:33:58;;;;;;;163.73;36.15;;;-2.00;99.90;;;;;;4391853;28;662652;-64
2022/11/21 06:36:45;;;;;;;182.93;38.50;;;-1.90;99.90;;;;;;4391616;28;661511;-64
2022/11/21 06:39:34;;;;;;;196.67;36.23;;;-1.80;99.90;;;;;;4414889;28;662435;-63
2022/11/21 06:42:21;;;;;;;156.40;36.70;;;-1.70;99.90;;;;;;4388148;28;661732;-64
2022/11/21 06:45:09;;;;;;;127.53;35.03;;;-1.60;99.90;;;;;;4413860;28;662617;-64
2022/11/21 06:47:56;;;;;;;174.35;38.90;;;-1.50;99.90;;;;;;4388012;28;661747;-64
2022/11/21 06:50:43;;;;;;;184.50;40.43;;;-1.40;99.90;;;;;;4414896;28;662803;-64
2022/11/21 06:53:30;;;;;;;183.10;43.37;;;-1.30;99.90;;;;;;4394464;28;662620;-65
2022/11/21 06:56:18;;;;;;;197.73;48.63;;;-1.30;99.90;;;;;;4414305;28;662749;-64
2022/11/21 06:59:06;;;;;;;164.57;45.27;;;-1.20;99.90;;;;;;4391273;28;661952;-64
2022/11/21 07:01:53;;;;;;;196.27;44.27;;;-1.10;99.90;;;;;;4813206;28;661983;-64
2022/11/21 07:04:40;;;;;;;174.73;41.80;;;-1.00;99.90;;;;;;4465255;28;660790;-65
2022/11/21 07:07:27;;;;;;;162.07;40.20;;;-0.90;99.90;;;;;;4414666;28;661669;-64
2022/11/21 07:10:14;;;;;;;142.43;37.90;;;-0.80;99.90;;;;;;4410262;28;662278;-64
2022/11/21 07:13:21;;;;;;;170.57;37.17;;;-0.60;99.90;;;;;;4391301;28;662833;-64
2022/11/21 07:16:09;;;;;;;151.93;36.10;;;-0.50;99.90;;;;;;4384202;28;662238;-64
2022/11/21 07:18:56;;;;;;;176.43;42.25;;;-0.30;99.90;;;;;;4388835;28;662118;-64
2022/11/21 07:21:43;;;;;;;123.67;35.13;;;-0.20;99.90;;;;;;4409831;28;662805;-64
2022/11/21 07:24:30;;;;;;;114.57;35.40;;;-0.10;99.90;;;;;;4390989;28;662105;-66
2022/11/21 07:27:17;;;;;;;112.47;35.93;;;0.00;99.90;;;;;;4409959;28;663439;-64
2022/11/21 07:30:07;;;;;;;104.27;36.63;;;0.10;99.90;;;;;;4410981;28;660535;-64
2022/11/21 07:32:56;;;;;;;91.77;33.17;;;0.20;99.90;;;;;;4383327;28;661097;-66
2022/11/21 07:35:44;;;;;;;90.80;35.73;;;0.30;99.90;;;;;;4412152;28;661003;-64
2022/11/21 07:38:31;;;;;;;81.75;32.13;;;0.40;99.90;;;;;;4393515;28;659539;-64
2022/11/21 07:41:18;;;;;;;97.80;35.40;;;0.50;99.90;;;;;;4412202;28;661665;-64
2022/11/21 07:44:05;;;;;;;74.70;30.57;;;0.50;99.90;;;;;;4392667;28;659466;-66
2022/11/21 07:46:55;;;;;;;75.93;31.77;;;0.60;99.90;;;;;;4412018;28;661055;-64
2022/11/21 07:49:42;;;;;;;90.87;33.70;;;0.60;99.90;;;;;;4391239;28;660354;-64
2022/11/21 07:52:29;;;;;;;86.70;35.03;;;0.70;99.90;;;;;;4412002;28;659637;-64
2022/11/21 07:55:17;;;;;;;93.57;36.80;;;0.70;99.90;;;;;;4388909;28;660997;-64
2022/11/21 07:58:05;;;;;;;83.03;33.13;;;0.80;99.90;;;;;;4406358;28;661296;-64
2022/11/21 08:00:53;;;;;;;84.40;33.97;;;0.80;99.90;;;;;;4388272;28;661787;-64
2022/11/21 08:03:41;;;;;;;80.23;33.63;;;0.90;99.90;;;;;;4401708;28;659660;-65
2022/11/21 08:06:28;;;;;;;88.63;35.33;;;0.90;99.90;;;;;;4410470;28;660103;-64
2022/11/21 08:09:16;;;;;;;90.93;35.40;;;1.00;99.90;;;;;;4391728;28;659769;-65
2022/11/21 08:12:03;;;;;;;83.27;34.37;;;1.00;99.90;;;;;;4409362;28;661076;-64
2022/11/21 08:14:50;;;;;;;82.47;33.53;;;1.10;99.90;;;;;;4395459;28;659714;-66
2022/11/21 08:17:37;;;;;;;84.45;34.72;;;1.20;99.90;;;;;;4414736;28;659536;-64
2022/11/21 08:20:26;;;;;;;85.27;35.10;;;1.20;99.90;;;;;;4410589;28;660166;-64
2022/11/21 08:23:13;;;;;;;92.90;37.93;;;1.50;99.90;;;;;;4387994;28;660402;-64
2022/11/21 08:26:00;;;;;;;94.90;37.57;;;1.80;99.90;;;;;;4389865;28;660219;-66
2022/11/21 08:28:47;;;;;;;100.57;41.75;;;2.40;99.90;;;;;;4414737;28;659705;-64
2022/11/21 08:31:34;;;;;;;101.20;40.30;;;3.00;99.90;;;;;;4409279;28;661818;-64
2022/11/21 08:34:21;;;;;;;94.57;40.43;;;3.60;99.90;;;;;;4386679;28;660490;-65
2022/11/21 08:37:10;;;;;;;81.67;36.93;;;4.00;99.90;;;;;;4405094;28;660547;-64
2022/11/21 08:39:59;;;;;;;83.37;35.90;;;4.20;99.90;;;;;;4387763;28;662082;-64
2022/11/21 08:42:46;;;;;;;83.20;38.23;;;4.30;99.90;;;;;;4390065;28;659889;-65
2022/11/21 08:45:33;;;;;;;77.60;34.67;;;4.90;99.90;;;;;;4411384;28;659509;-64
2022/11/21 08:48:21;;;;;;;62.80;28.43;;;5.20;99.90;;;;;;4392518;28;659383;-65
2022/11/21 08:51:08;;;;;;;52.30;25.77;;;5.20;99.90;;;;;;4411385;28;661115;-65
2022/11/21 08:53:56;;;;;;;59.87;26.30;;;5.10;99.90;;;;;;4406848;28;659690;-66
2022/11/21 08:56:44;;;;;;;57.97;26.47;;;4.70;99.90;;;;;;4414799;28;661130;-64
2022/11/21 08:59:31;;;;;;;83.40;31.33;;;4.50;99.90;;;;;;4378605;28;660127;-65
2022/11/21 09:02:18;;;;;;;66.40;28.13;;;4.30;99.90;;;;;;4851061;28;660149;-65
2022/11/21 09:05:06;;;;;;;61.05;26.95;;;4.00;99.90;;;;;;4382700;28;660215;-66
2022/11/21 09:07:56;;;;;;;72.27;30.23;;;3.80;99.90;;;;;;4397437;28;660131;-64
2022/11/21 09:10:45;;;;;;;76.67;30.17;;;3.60;99.90;;;;;;4374397;28;660769;-64
2022/11/21 09:13:32;;;;;;;76.87;32.83;;;3.40;99.90;;;;;;4374360;28;661035;-65
2022/11/21 09:19:23;;;;;;;70.07;28.33;;;3.50;99.90;;;;;;4370569;28;660720;-65
2022/11/21 09:22:10;;;;;;;59.03;27.00;;;3.40;99.90;;;;;;4378062;28;660539;-65
2022/11/21 09:24:57;;;;;;;56.67;25.83;;;3.30;99.90;;;;;;4396916;28;661745;-64
2022/11/21 09:27:46;;;;;;;55.63;24.67;;;3.30;99.90;;;;;;4387638;28;659506;-65
2022/11/21 09:30:34;;;;;;;57.30;25.57;;;3.20;99.90;;;;;;4397097;28;660853;-65
2022/11/21 09:33:21;;;;;;;51.73;22.73;;;3.30;99.90;;;;;;4378033;28;660092;-65
2022/11/21 09:36:08;;;;;;;51.37;23.40;;;3.30;99.90;;;;;;4399616;28;660758;-64
2022/11/21 09:38:55;;;;;;;58.67;25.23;;;3.30;99.90;;;;;;4370037;28;659514;-65
2022/11/21 09:41:52;;;;;;;54.77;25.60;;;3.20;99.90;;;;;;4396682;28;661314;-65
2022/11/21 09:44:46;;;;;;;56.93;26.23;;;3.20;99.90;;;;;;4372965;28;659898;-64
2022/11/21 09:47:35;;;;;;;65.97;30.10;;;3.00;99.90;;;;;;4372783;28;659882;-64
2022/11/21 09:50:27;;;;;;;66.90;29.60;;;3.10;99.90;;;;;;4377036;28;660748;-65
2022/11/21 09:53:16;;;;;;;76.33;30.40;;;3.20;99.90;;;;;;4372920;28;659933;-64
2022/11/21 09:56:05;;;;;;;56.03;26.17;;;3.20;99.90;;;;;;4372695;28;660688;-65
2022/11/21 09:58:58;;;;;;;65.27;28.93;;;3.30;99.90;;;;;;4386120;28;661531;-65
2022/11/21 10:01:47;;;;;;;59.70;26.57;;;3.30;99.90;;;;;;4371308;28;659665;-65
2022/11/21 10:04:34;;;;;;;49.00;24.63;;;3.30;99.90;;;;;;4411099;28;660231;-64
2022/11/21 10:07:23;;;;;;;55.47;25.70;;;3.40;99.90;;;;;;4392208;28;659664;-64
2022/11/21 10:10:29;;;;;;;57.47;26.20;;;3.40;99.90;;;;;;4393928;28;659727;-65
2022/11/21 10:13:19;;;;;;;52.80;25.80;;;3.50;99.90;;;;;;4393799;28;659893;-65
2022/11/21 10:16:09;;;;;;;56.83;26.37;;;3.60;99.90;;;;;;4393873;28;660423;-65
2022/11/21 10:19:05;;;;;;;57.57;26.57;;;3.70;99.90;;;;;;4393737;28;659952;-64
2022/11/21 10:22:01;;;;;;;63.60;27.93;;;3.80;99.90;;;;;;4370775;28;660644;-64
2022/11/21 10:24:51;;;;;;;59.83;27.90;;;3.90;1.00;;;;;;4389802;28;660356;-65
2022/11/21 10:27:41;;;;;;;71.30;31.57;;;3.70;1.00;;;;;;4390915;28;659578;-65
2022/11/21 10:30:28;;;;;;;67.93;31.27;;;3.70;99.90;;;;;;4390895;28;659197;-65
2022/11/21 10:33:18;;;;;;;68.20;28.93;;;3.70;99.90;;;;;;4393363;28;660166;-65
2022/11/21 10:36:09;;;;;;;55.83;23.63;;;3.70;99.90;;;;;;4402355;28;660214;-66
2022/11/21 10:38:58;;;;;;;52.57;22.47;;;3.80;21.70;;;;;;4391126;28;659673;-65
2022/11/21 10:41:48;;;;;;;56.40;24.70;;;3.80;1.00;;;;;;4393497;28;659652;-65
2022/11/21 10:47:40;;;;;;;67.73;27.10;;;3.80;1.00;;;;;;4374499;28;659097;-65
2022/11/21 10:50:40;;;;;;;55.88;26.10;;;3.70;1.00;;;;;;4417906;28;658437;-65
2022/11/21 10:56:33;;;;;;;61.27;27.23;;;3.80;1.00;;;;;;4367679;28;659397;-64
2022/11/21 10:59:23;;;;;;;88.50;37.30;;;3.80;1.00;;;;;;4394255;28;659412;-66
2022/11/21 11:02:22;;;;;;;89.95;38.40;;;3.70;1.00;;;;;;4394228;28;658542;-66
2022/11/21 11:05:19;;;;;;;74.20;34.53;;;3.60;1.00;;;;;;4390112;28;658855;-64
2022/11/21 11:08:07;;;;;;;80.93;36.67;;;3.60;1.00;;;;;;4367316;28;660164;-64
2022/11/21 11:11:03;;;;;;;77.40;35.63;;;3.60;1.00;;;;;;4412847;28;659713;-64
2022/11/21 11:13:54;;;;;;;73.43;34.37;;;3.60;1.00;;;;;;4371439;28;658917;-64
2022/11/21 11:16:43;;;;;;;66.67;31.00;;;3.70;1.00;;;;;;4393629;28;658495;-64
2022/11/21 11:19:30;;;;;;;71.40;30.13;;;3.70;1.00;;;;;;4394759;28;658676;-66
2022/11/21 11:22:27;;;;;;;75.73;31.20;;;3.80;1.00;;;;;;4416642;28;658687;-65
2022/11/21 11:25:15;;;;;;;67.77;28.03;;;3.90;99.90;;;;;;4389940;28;658430;-64
2022/11/21 11:28:06;;;;;;;61.63;27.47;;;4.00;99.90;;;;;;4388328;28;660858;-64
2022/11/21 11:30:54;;;;;;;60.67;26.77;;;4.10;99.90;;;;;;4388607;28;660937;-64
2022/11/21 11:33:41;;;;;;;64.67;27.17;;;4.10;99.90;;;;;;4392076;28;659710;-64
2022/11/21 11:36:36;;;;;;;58.00;25.63;;;4.20;99.90;;;;;;4411294;28;660912;-64
2022/11/21 11:39:40;;;;;;;60.40;26.53;;;4.20;99.90;;;;;;4386470;28;660195;-64
2022/11/21 11:49:12;;;;;;;54.67;25.70;;;4.30;99.90;;;;;;4369382;28;659613;-65
2022/11/21 11:52:00;;;;;;;62.43;26.17;;;4.40;99.90;;;;;;4411040;28;660026;-64
2022/11/21 11:54:49;;;;;;;66.20;28.10;;;4.40;99.90;;;;;;4387334;28;660340;-64
2022/11/21 11:57:36;;;;;;;63.60;28.67;;;4.40;99.90;;;;;;4388298;28;659859;-65
2022/11/21 12:00:27;;;;;;;60.97;28.30;;;4.40;99.90;;;;;;4411947;28;660777;-64
2022/11/21 12:03:18;;;;;;;58.47;27.23;;;4.40;99.90;;;;;;4389099;28;659842;-64
2022/11/21 12:06:07;;;;;;;64.60;28.67;;;4.40;99.90;;;;;;4369757;28;660028;-64
2022/11/21 12:08:56;;;;;;;64.20;29.33;;;4.40;99.90;;;;;;4411834;28;659924;-64
2022/11/21 12:12:07;;;;;;;60.40;27.70;;;4.40;99.90;;;;;;4388989;28;660694;-64
2022/11/21 12:18:12;;;;;;;62.40;26.40;;;4.20;99.90;;;;;;4382989;28;659735;-64
2022/11/21 12:21:07;;;;;;;62.73;28.63;;;4.30;99.90;;;;;;4409455;28;659748;-65
2022/11/21 12:23:55;;;;;;;62.40;27.83;;;4.40;99.90;;;;;;4388831;28;661105;-64
2022/11/21 12:26:49;;;;;;;60.47;29.03;;;4.40;99.90;;;;;;4388982;28;660702;-64
2022/11/21 12:29:43;;;;;;;64.47;28.03;;;4.40;99.90;;;;;;4373566;28;660363;-65
2022/11/21 12:32:38;;;;;;;63.50;30.63;;;4.40;99.90;;;;;;4373478;28;659577;-64
2022/11/21 12:35:33;;;;;;;65.67;31.30;;;4.30;99.90;;;;;;4371211;28;660527;-64
2022/11/21 12:38:29;;;;;;;64.93;30.30;;;4.20;99.90;;;;;;4379694;28;659995;-66
2022/11/21 12:44:34;;;;;;;60.30;28.33;;;4.20;99.90;;;;;;4373616;28;660240;-64
2022/11/21 12:47:30;;;;;;;68.77;30.53;;;4.10;99.90;;;;;;4369520;28;660870;-64
2022/11/21 12:56:32;;;;;;;76.13;36.47;;;4.20;1.00;;;;;;4343551;28;659869;-65
2022/11/21 12:59:20;;;;;;;75.00;33.10;;;4.20;1.00;;;;;;4411390;28;658250;-64
2022/11/21 13:02:09;;;;;;;76.67;35.37;;;4.20;1.00;;;;;;4840282;28;660513;-64
2022/11/21 13:04:57;;;;;;;72.47;33.33;;;4.20;1.00;;;;;;4392230;28;660051;-64
2022/11/21 13:07:44;;;;;;;66.87;30.83;;;4.20;1.00;;;;;;4415102;28;659730;-64
2022/11/21 13:10:32;;;;;;;73.23;33.67;;;4.30;1.00;;;;;;4396254;28;660187;-64
2022/11/21 13:13:23;;;;;;;65.10;31.43;;;4.40;1.00;;;;;;4412545;28;658588;-65
2022/11/21 13:16:11;;;;;;;66.83;31.83;;;4.50;1.00;;;;;;4395904;28;658683;-65
2022/11/21 13:18:58;;;;;;;71.50;31.53;;;4.50;1.00;;;;;;4414705;28;660600;-65
2022/11/21 13:21:47;;;;;;;73.60;29.60;;;4.60;1.00;;;;;;4396078;28;659203;-65
2022/11/21 13:24:56;;;;;;;67.47;30.80;;;4.70;1.00;;;;;;4414530;28;659200;-64
2022/11/21 13:27:44;;;;;;;70.30;32.90;;;4.80;99.90;;;;;;4395599;28;659280;-64
2022/11/21 13:30:31;;;;;;;68.57;30.73;;;4.90;99.90;;;;;;4394581;28;661102;-65
2022/11/21 13:33:44;;;;;;;62.37;30.00;;;5.10;99.90;;;;;;4413276;28;660255;-64
2022/11/21 13:36:49;;;;;;;65.17;29.13;;;5.20;99.90;;;;;;4367672;28;661715;-64
2022/11/21 13:39:37;;;;;;;56.83;27.20;;;5.40;99.90;;;;;;4367495;28;661242;-64
2022/11/21 13:45:42;;;;;;;53.13;25.37;;;5.60;46.70;;;;;;4391142;28;660240;-64
2022/11/21 13:48:52;;;;;;;55.13;26.30;;;5.50;42.30;;;;;;4387510;28;660078;-64
2022/11/21 13:51:51;;;;;;;59.87;26.20;;;5.40;27.70;;;;;;4390348;28;659263;-64
2022/11/21 13:54:57;;;;;;;53.93;25.43;;;5.10;84.20;;;;;;4390218;28;659915;-64
2022/11/21 13:57:51;;;;;;;54.40;25.23;;;4.90;99.90;;;;;;4412597;28;659692;-66
2022/11/21 14:00:50;;;;;;;56.63;26.93;;;4.50;99.90;;;;;;4390112;28;660822;-64
2022/11/21 14:03:48;;;;;;;58.30;25.73;;;4.40;99.90;;;;;;4370917;28;660616;-64
2022/11/21 14:06:36;;;;;;;55.67;25.70;;;4.10;99.90;;;;;;4382187;28;660357;-65
2022/11/21 14:09:25;;;;;;;61.25;26.05;;;4.00;1.00;;;;;;4412674;28;661071;-64
2022/11/21 14:12:21;;;;;;;56.73;25.73;;;3.90;1.00;;;;;;4391184;28;660386;-64
2022/11/21 14:15:17;;;;;;;57.03;25.87;;;3.80;1.00;;;;;;4390396;28;659205;-64
2022/11/21 14:18:05;;;;;;;61.50;26.60;;;3.80;1.00;;;;;;4391145;28;658535;-64
2022/11/21 14:20:55;;;;;;;53.23;24.70;;;3.80;1.00;;;;;;4391337;28;659552;-64
2022/11/21 14:23:44;;;;;;;58.73;26.23;;;3.70;1.00;;;;;;4394727;28;659895;-65
2022/11/21 14:26:31;;;;;;;68.03;26.03;;;3.60;99.90;;;;;;4394206;28;659033;-64
2022/11/21 14:29:21;;;;;;;61.57;27.30;;;3.50;99.90;;;;;;4412478;28;660073;-64
2022/11/21 14:32:13;;;;;;;67.00;29.77;;;3.50;1.00;;;;;;4389544;28;661403;-64
2022/11/21 14:35:18;;;;;;;79.80;34.43;;;3.40;99.90;;;;;;4365536;28;658884;-65
2022/11/21 14:38:05;;;;;;;83.17;34.00;;;3.40;99.90;;;;;;4363908;28;659915;-64
2022/11/21 14:41:27;;;;;;;88.63;38.07;;;3.40;99.90;;;;;;4412203;28;661523;-64
2022/11/21 14:44:19;;;;;;;74.53;33.33;;;3.40;99.90;;;;;;4389997;28;659957;-63
2022/11/21 14:47:13;;;;;;;79.90;35.00;;;3.30;99.90;;;;;;4393021;28;659550;-63
2022/11/21 14:50:02;;;;;;;74.20;32.63;;;3.30;99.90;;;;;;4377323;28;659537;-65
2022/11/21 14:52:56;;;;;;;71.85;31.85;;;3.30;99.90;;;;;;4412183;28;659853;-65
2022/11/21 14:55:43;;;;;;;68.63;31.97;;;3.30;99.90;;;;;;4389009;28;660573;-64